createdAt,value
2023-03-31T00:04:14.873Z,99327.91
2023-03-31T00:09:18.893Z,99326.59
2023-03-31T00:14:21.993Z,99316.03
2023-03-31T00:19:29.059Z,99312.38
2023-03-31T00:24:32.859Z,99298.38
2023-03-31T00:29:35.972Z,99305.31
2023-03-31T00:34:40.781Z,99297.88
2023-03-31T00:39:43.592Z,99287.72
2023-03-31T00:45:23.494Z,99284.88
2023-03-31T00:50:30.618Z,99271.09
2023-03-31T00:55:38.913Z,99262.53
2023-03-31T01:00:42.201Z,99255.50
2023-03-31T01:05:50.742Z,99253.81
2023-03-31T01:10:56.600Z,99240.53
2023-03-31T01:15:59.442Z,99243.84
2023-03-31T01:21:34.200Z,99228.75
2023-03-31T01:26:54.904Z,99231.53
2023-03-31T01:32:45.737Z,99215.16
2023-03-31T01:38:34.994Z,99206.16
2023-03-31T01:43:45.948Z,99197.00
2023-03-31T01:48:55.674Z,99193.19
2023-03-31T01:54:05.984Z,99178.31
2023-03-31T01:59:14.709Z,99174.91
2023-03-31T02:04:22.257Z,99163.31
2023-03-31T02:09:29.530Z,99152.09
2023-03-31T02:14:35.674Z,99141.63
2023-03-31T02:19:41.279Z,99141.47
2023-03-31T02:24:46.669Z,99128.22
2023-03-31T02:29:51.567Z,99116.22
2023-03-31T02:34:55.619Z,99112.25
2023-03-31T02:40:02.948Z,99108.03
2023-03-31T02:45:29.505Z,99100.78
2023-03-31T02:50:42.841Z,99087.09
2023-03-31T02:56:00.798Z,99091.06
2023-03-31T03:01:18.308Z,99084.34
2023-03-31T03:06:37.617Z,99065.94
2023-03-31T03:11:55.205Z,99058.13
2023-03-31T03:17:05.319Z,99039.66
2023-03-31T03:22:09.291Z,99032.38
2023-03-31T03:27:12.175Z,99029.63
2023-03-31T03:32:16.356Z,99034.47
2023-03-31T03:37:19.185Z,99016.47
2023-03-31T03:42:22.031Z,99010.91
2023-03-31T03:47:26.299Z,98984.13
2023-03-31T03:52:29.196Z,98964.03
2023-03-31T03:57:32.015Z,98957.03
2023-03-31T04:02:36.307Z,98936.69
2023-03-31T04:07:39.274Z,98932.41
2023-03-31T04:12:42.165Z,98919.44
2023-03-31T04:17:51.106Z,98905.06
2023-03-31T04:22:54.749Z,98899.88
2023-03-31T04:27:57.612Z,98895.09
2023-03-31T04:33:04.113Z,98894.16
2023-03-31T04:38:06.898Z,98888.00
2023-03-31T04:43:09.651Z,98870.63
2023-03-31T04:48:14.068Z,98864.97
2023-03-31T04:53:16.902Z,98854.09
2023-03-31T04:58:19.697Z,98842.53
2023-03-31T05:03:24.070Z,98843.69
2023-03-31T05:08:27.587Z,98828.91
2023-03-31T05:13:30.367Z,98827.47
2023-03-31T05:18:34.632Z,98824.31
2023-03-31T05:23:37.527Z,98799.94
2023-03-31T05:28:40.784Z,98791.28
2023-03-31T05:33:44.936Z,98793.09
2023-03-31T05:38:47.796Z,98781.66
2023-03-31T05:43:50.547Z,98769.00
2023-03-31T05:48:55.079Z,98785.78
2023-03-31T05:53:57.824Z,98768.69
2023-03-31T05:59:01.133Z,98750.09
2023-03-31T06:04:05.301Z,98748.97
2023-03-31T06:09:08.136Z,98730.06
2023-03-31T06:14:11.015Z,98737.16
2023-03-31T06:19:15.468Z,98732.88
2023-03-31T06:24:18.207Z,98714.06
2023-03-31T06:29:21.152Z,98706.31
2023-03-31T06:34:25.498Z,98692.69
2023-03-31T06:39:28.795Z,98686.00
2023-03-31T06:44:31.563Z,98669.47
2023-03-31T06:49:35.746Z,98645.44
2023-03-31T06:54:38.511Z,98646.28
2023-03-31T06:59:41.587Z,98643.81
2023-03-31T07:04:45.771Z,98648.44
2023-03-31T07:09:48.525Z,98645.59
2023-03-31T07:14:51.480Z,98623.88
2023-03-31T07:19:55.754Z,98614.91
2023-03-31T07:24:58.499Z,98611.47
2023-03-31T07:30:01.386Z,98605.19
2023-03-31T07:35:06.119Z,98592.50
2023-03-31T07:40:11.249Z,98589.91
2023-03-31T07:45:14.381Z,98577.94
2023-03-31T07:50:19.225Z,98569.50
2023-03-31T07:55:26.292Z,98556.56
2023-03-31T08:00:29.224Z,98565.06
2023-03-31T08:05:33.624Z,98555.06
2023-03-31T08:10:36.450Z,98551.22
2023-03-31T08:15:39.229Z,98552.41
2023-03-31T08:20:43.333Z,98538.00
2023-03-31T08:25:46.088Z,98557.13
2023-03-31T08:30:48.852Z,98530.03
2023-03-31T08:35:53.050Z,98537.41
2023-03-31T08:41:00.876Z,98547.03
2023-03-31T08:46:06.087Z,98541.69
2023-03-31T08:51:18.101Z,98543.38
2023-03-31T08:56:24.099Z,98536.44
2023-03-31T09:01:47.700Z,98526.38
2023-03-31T09:07:06.988Z,98542.28
2023-03-31T09:12:16.132Z,98534.69
2023-03-31T09:17:24.351Z,98522.47
2023-03-31T09:22:32.583Z,98512.94
2023-03-31T09:27:37.408Z,98507.44
2023-03-31T09:32:41.050Z,98505.06
2023-03-31T09:37:45.631Z,98521.75
2023-03-31T09:42:52.318Z,98507.81
2023-03-31T09:47:57.994Z,98503.34
2023-03-31T09:53:05.397Z,98503.34
2023-03-31T09:58:12.933Z,98499.75
2023-03-31T10:03:15.763Z,98494.03
2023-03-31T10:08:27.224Z,98490.69
2023-03-31T10:13:36.743Z,98498.47
2023-03-31T10:18:41.877Z,98497.34
2023-03-31T10:23:48.820Z,98500.34
2023-03-31T10:28:55.152Z,98506.25
2023-03-31T10:33:59.583Z,98493.31
2023-03-31T10:39:07.649Z,98476.94
2023-03-31T10:44:32.196Z,98463.59
2023-03-31T10:49:40.512Z,98458.38
2023-03-31T10:54:50.268Z,98460.44
2023-03-31T11:00:09.007Z,98451.19
2023-03-31T11:05:16.466Z,98446.50
2023-03-31T11:10:36.434Z,98440.66
2023-03-31T11:15:43.952Z,98440.59
2023-03-31T11:20:57.681Z,98428.94
2023-03-31T11:26:06.892Z,98420.78
2023-03-31T11:31:28.597Z,98416.97
2023-03-31T11:36:53.600Z,98418.78
2023-03-31T11:42:01.332Z,98407.34
2023-03-31T11:47:08.899Z,98391.44
2023-03-31T11:52:17.175Z,98396.59
2023-03-31T11:57:26.213Z,98384.72
2023-03-31T12:02:40.133Z,98387.41
2023-03-31T12:07:49.197Z,98379.56
2023-03-31T12:12:57.247Z,98368.81
2023-03-31T12:18:04.097Z,98361.06
2023-03-31T12:23:14.841Z,98361.22
2023-03-31T12:28:20.667Z,98358.72
2023-03-31T12:33:27.886Z,98339.47
2023-03-31T12:38:43.750Z,98342.03
2023-03-31T12:44:06.855Z,98335.38
2023-03-31T12:49:28.581Z,98332.91
2023-03-31T12:54:58.650Z,98330.28
2023-03-31T13:00:21.976Z,98340.38
2023-03-31T13:05:50.331Z,98321.19
2023-03-31T13:10:58.695Z,98322.06
2023-03-31T13:16:03.741Z,98310.00
2023-03-31T13:21:07.900Z,98311.41
2023-03-31T13:26:37.215Z,98311.06
2023-03-31T13:32:17.502Z,98337.97
2023-03-31T13:37:44.941Z,98349.06
2023-03-31T13:43:14.760Z,98349.47
2023-03-31T13:48:32.038Z,98341.75
2023-03-31T13:53:55.129Z,98343.53
2023-03-31T13:59:31.786Z,98342.75
2023-03-31T14:05:05.317Z,98329.22
2023-03-31T14:10:23.646Z,98346.50
2023-03-31T14:15:26.397Z,98338.75
2023-03-31T14:20:36.982Z,98338.53
2023-03-31T14:25:50.174Z,98337.72
2023-03-31T14:31:04.782Z,98337.53
2023-03-31T14:36:15.923Z,98325.06
2023-03-31T14:41:29.938Z,98337.81
2023-03-31T14:46:37.553Z,98327.91
2023-03-31T14:51:46.769Z,98326.50
2023-03-31T14:56:55.116Z,98330.41
2023-03-31T15:02:00.664Z,98329.66
2023-03-31T15:07:05.896Z,98318.53
2023-03-31T15:12:14.859Z,98309.69
2023-03-31T15:17:22.791Z,98312.91
2023-03-31T15:22:27.623Z,98315.28
2023-03-31T15:27:37.855Z,98310.81
2023-03-31T15:32:41.880Z,98314.13
2023-03-31T15:37:47.424Z,98305.22
2023-03-31T15:43:06.547Z,98298.41
2023-03-31T15:48:22.922Z,98292.69
2023-03-31T15:53:32.583Z,98292.25
2023-03-31T15:58:56.736Z,98288.81
2023-03-31T16:04:00.531Z,98281.50
2023-03-31T16:09:08.080Z,98273.81
2023-03-31T16:14:20.810Z,98273.22
2023-03-31T16:19:24.736Z,98269.06
2023-03-31T16:24:31.894Z,98270.78
2023-03-31T16:29:37.773Z,98271.78
2023-03-31T16:34:58.850Z,98272.22
2023-03-31T16:40:01.885Z,98266.28
2023-03-31T16:50:15.257Z,98264.75
2023-03-31T16:55:18.199Z,98252.53
2023-03-31T17:00:22.680Z,98256.09
2023-03-31T17:05:26.375Z,98259.31
2023-03-31T17:10:29.034Z,98278.84
2023-03-31T17:15:35.018Z,98299.53
2023-03-31T17:20:38.058Z,98301.06
2023-03-31T17:25:40.945Z,98318.97
2023-03-31T17:30:47.784Z,98313.00
2023-03-31T17:35:50.624Z,98287.13
2023-03-31T17:40:54.520Z,98285.50
2023-03-31T17:46:04.161Z,98279.47
2023-03-31T17:51:07.684Z,98290.53
2023-03-31T17:56:10.450Z,98294.38
2023-03-31T18:01:14.586Z,98290.69
2023-03-31T18:06:17.726Z,98295.88
2023-03-31T18:11:20.543Z,98300.06
2023-03-31T18:16:24.803Z,98294.69
2023-03-31T18:21:27.651Z,98297.06
2023-03-31T18:26:30.650Z,98299.06
2023-03-31T18:31:34.996Z,98299.72
2023-03-31T18:36:38.000Z,98300.56
2023-03-31T18:41:45.666Z,98298.56
2023-03-31T18:46:49.879Z,98298.56
2023-03-31T18:51:53.640Z,98304.41
2023-03-31T18:56:56.563Z,98311.75
2023-03-31T19:02:01.025Z,98309.41
2023-03-31T19:07:03.940Z,98312.09
2023-03-31T19:12:07.527Z,98314.97
2023-03-31T19:17:12.407Z,98317.81
2023-03-31T19:22:15.480Z,98310.78
2023-03-31T19:27:18.279Z,98318.31
2023-03-31T19:32:22.407Z,98318.47
2023-03-31T19:37:25.705Z,98316.78
2023-03-31T19:42:28.463Z,98315.78
2023-03-31T19:47:32.572Z,98311.78
2023-03-31T19:52:36.533Z,98302.75
2023-03-31T19:57:39.304Z,98310.25
2023-03-31T20:02:43.672Z,98299.19
2023-03-31T20:07:46.558Z,98291.69
2023-03-31T20:12:51.562Z,98296.34
2023-03-31T20:17:56.959Z,98298.34
2023-03-31T20:23:00.195Z,98298.88
2023-03-31T20:28:03.012Z,98303.06
2023-03-31T20:33:07.406Z,98295.69
2023-03-31T20:38:10.198Z,98296.00
2023-03-31T20:43:13.116Z,98302.03
2023-03-31T20:48:17.735Z,98299.16
2023-03-31T20:53:20.673Z,98300.16
2023-03-31T20:58:23.476Z,98294.00
2023-03-31T21:03:27.661Z,98302.00
2023-03-31T21:08:30.519Z,98295.66
2023-03-31T21:13:33.468Z,98295.31
2023-03-31T21:18:37.656Z,98296.31
2023-03-31T21:23:41.015Z,98299.34
2023-03-31T21:28:44.508Z,98293.84
2023-03-31T21:33:48.741Z,98300.16
2023-03-31T21:38:54.075Z,98291.97
2023-03-31T21:43:59.715Z,98292.94
2023-03-31T21:49:05.801Z,98297.31
2023-03-31T21:54:08.717Z,98298.22
2023-03-31T21:59:11.535Z,98287.88
2023-03-31T22:04:15.766Z,98296.75
2023-03-31T22:09:18.694Z,98298.56
2023-03-31T22:14:21.586Z,98289.97
2023-03-31T22:19:25.669Z,98300.59
2023-03-31T22:24:28.435Z,98297.09
2023-03-31T22:29:31.322Z,98296.91
2023-03-31T22:34:35.451Z,98295.78
2023-03-31T22:39:38.197Z,98293.16
2023-03-31T22:44:41.261Z,98290.78
2023-03-31T22:49:45.814Z,98303.16
2023-03-31T22:54:48.560Z,98317.44
2023-03-31T22:59:51.531Z,98311.91
2023-03-31T23:04:56.022Z,98313.50
2023-03-31T23:09:58.797Z,98310.06
2023-03-31T23:15:02.270Z,98309.03
2023-03-31T23:20:07.902Z,98313.59
2023-03-31T23:25:10.815Z,98308.94
2023-03-31T23:30:15.059Z,98307.69
2023-03-31T23:35:19.305Z,98320.22
2023-03-31T23:40:22.166Z,98307.84
2023-03-31T23:45:24.971Z,98313.50
2023-03-31T23:50:29.181Z,98299.78
2023-03-31T23:55:32.365Z,98306.09
